Time;durP1;ratioP1;P1;durP2;ratioP2;P2;SDS_P1;SDS_P2;PMS_P1;PMS_P2;Temp;Humidity;BMP_temperature;BMP_pressure;BME280_temperature;BME280_humidity;BME280_pressure;Samples;Min_cycle;Max_cycle;Signal;HPM_P1;HPM_P2
2022/07/15 00:02:11;;;;;;;2.53;2.33;;;24.80;49.10;;;;;;4993834;23;20276;-68
2022/07/15 00:04:38;;;;;;;2.40;2.20;;;24.70;49.20;;;;;;4980245;28;20201;-68
2022/07/15 00:07:06;;;;;;;2.42;2.22;;;24.70;49.20;;;;;;4979903;28;20201;-68
2022/07/15 00:12:19;;;;;;;2.50;2.20;;;24.70;49.80;;;;;;4979637;28;20202;-68
2022/07/15 00:14:46;;;;;;;2.80;2.50;;;24.70;49.20;;;;;;4979508;28;20194;-68
2022/07/15 00:17:13;;;;;;;2.30;2.10;;;24.70;49.40;;;;;;4997614;28;20653;-68
2022/07/15 00:19:40;;;;;;;2.88;2.30;;;24.70;49.30;;;;;;4979526;28;20217;-68
2022/07/15 00:22:08;;;;;;;2.40;2.20;;;24.60;49.40;;;;;;4997488;28;20192;-68
2022/07/15 00:24:35;;;;;;;3.30;2.22;;;24.70;49.50;;;;;;4979377;28;20194;-68
2022/07/15 00:27:03;;;;;;;2.38;2.03;;;24.60;49.40;;;;;;4979447;28;20292;-68
2022/07/15 00:29:31;;;;;;;2.53;2.30;;;24.60;50.00;;;;;;4996551;28;20210;-68
2022/07/15 00:31:58;;;;;;;2.60;2.40;;;24.60;49.40;;;;;;4979282;28;20545;-68
2022/07/15 00:34:25;;;;;;;2.80;2.40;;;24.50;49.10;;;;;;4979429;28;20206;-68
2022/07/15 00:36:52;;;;;;;2.60;2.40;;;24.50;49.30;;;;;;4979304;28;20197;-68
2022/07/15 00:39:20;;;;;;;3.10;2.25;;;24.50;48.90;;;;;;4979131;28;20509;-68
2022/07/15 00:41:48;;;;;;;2.60;2.40;;;24.50;48.50;;;;;;4979156;28;20596;-68
2022/07/15 00:44:16;;;;;;;2.97;2.20;;;24.50;48.40;;;;;;4979251;28;20197;-68
2022/07/15 00:46:44;;;;;;;2.40;2.20;;;24.50;48.50;;;;;;4979392;28;20201;-68
2022/07/15 00:49:11;;;;;;;2.35;2.08;;;24.50;48.50;;;;;;4979030;28;20270;-68
2022/07/15 00:51:41;;;;;;;2.63;2.20;;;24.50;48.40;;;;;;4978896;28;20300;-68
2022/07/15 00:54:08;;;;;;;2.63;2.30;;;24.50;48.30;;;;;;4979130;28;20746;-68
2022/07/15 00:56:37;;;;;;;2.38;2.15;;;24.40;48.50;;;;;;4978879;28;20236;-68
2022/07/15 00:59:32;;;;;;;2.45;2.25;;;24.40;48.30;;;;;;4996760;28;20328;-68
2022/07/15 01:02:02;;;;;;;2.30;2.15;;;24.30;48.20;;;;;;4978928;28;20244;-68
2022/07/15 01:04:29;;;;;;;2.88;1.98;;;24.30;48.00;;;;;;4978215;28;20185;-68
2022/07/15 01:06:56;;;;;;;2.53;2.33;;;24.30;48.00;;;;;;4978128;28;20205;-68
2022/07/15 01:09:23;;;;;;;2.88;2.17;;;24.30;47.90;;;;;;4978290;28;20241;-68
2022/07/15 01:11:51;;;;;;;2.00;1.90;;;24.30;48.00;;;;;;4978876;28;20682;-68
2022/07/15 01:14:18;;;;;;;3.22;2.63;;;24.30;48.10;;;;;;4978729;28;20202;-68
2022/07/15 01:16:46;;;;;;;2.45;2.25;;;24.30;47.80;;;;;;4978690;28;20197;-68
2022/07/15 01:19:15;;;;;;;2.15;1.95;;;24.30;48.00;;;;;;4978492;28;20218;-68
2022/07/15 01:21:46;;;;;;;2.20;2.00;;;24.30;48.00;;;;;;4979160;28;20216;-68
2022/07/15 01:24:13;;;;;;;2.55;2.28;;;24.20;47.80;;;;;;4978345;28;20198;-68
2022/07/15 01:26:45;;;;;;;2.25;2.00;;;24.20;47.90;;;;;;4978294;28;20634;-68
2022/07/15 01:29:15;;;;;;;2.30;1.90;;;24.20;48.10;;;;;;4978389;28;20217;-68
2022/07/15 01:31:43;;;;;;;2.50;2.30;;;24.20;48.20;;;;;;4995727;28;20618;-68
2022/07/15 01:34:10;;;;;;;2.28;2.10;;;24.20;47.80;;;;;;4978220;28;20194;-68
2022/07/15 01:36:38;;;;;;;2.20;2.00;;;24.20;47.80;;;;;;4978351;28;20220;-68
2022/07/15 01:39:07;;;;;;;2.33;2.03;;;24.20;47.90;;;;;;4978568;28;20709;-68
2022/07/15 01:41:35;;;;;;;2.30;2.10;;;24.20;47.60;;;;;;4978079;28;20189;-68
2022/07/15 01:44:02;;;;;;;2.22;2.05;;;24.10;47.70;;;;;;4978129;28;20201;-68
2022/07/15 01:46:30;;;;;;;2.30;2.10;;;24.10;47.70;;;;;;4977891;28;20699;-68
2022/07/15 01:51:46;;;;;;;2.75;2.03;;;24.10;47.70;;;;;;4978030;28;20292;-68
2022/07/15 01:54:16;;;;;;;2.63;2.10;;;24.10;47.70;;;;;;4978139;28;20645;-68
2022/07/15 01:56:43;;;;;;;2.65;2.20;;;24.10;47.90;;;;;;4977861;28;20284;-68
2022/07/15 01:59:11;;;;;;;2.20;2.00;;;24.10;47.80;;;;;;4977666;28;20232;-68
2022/07/15 02:01:39;;;;;;;2.65;2.00;;;24.00;47.80;;;;;;4977756;28;20202;-68
2022/07/15 02:04:12;;;;;;;3.05;2.00;;;24.00;47.70;;;;;;4977581;28;20224;-68
2022/07/15 02:06:39;;;;;;;2.78;2.03;;;24.00;47.80;;;;;;4977562;28;20201;-68
2022/07/15 02:09:07;;;;;;;2.92;2.03;;;24.00;47.90;;;;;;4977472;28;20213;-68
2022/07/15 02:11:40;;;;;;;2.33;2.00;;;24.00;47.90;;;;;;4977303;28;20217;-68
2022/07/15 02:14:08;;;;;;;2.17;1.98;;;23.90;47.70;;;;;;4977485;28;20708;-68
2022/07/15 02:16:36;;;;;;;3.38;2.15;;;23.90;47.90;;;;;;4976952;28;20198;-68
2022/07/15 02:19:08;;;;;;;2.30;2.10;;;23.90;48.10;;;;;;4978117;28;20217;-68
2022/07/15 02:21:37;;;;;;;2.55;2.35;;;23.90;48.20;;;;;;5002857;22;20241;-72
2022/07/15 02:24:05;;;;;;;2.55;2.20;;;23.90;48.10;;;;;;4977281;28;20542;-72
2022/07/15 02:26:33;;;;;;;2.17;2.00;;;23.90;48.10;;;;;;4977430;28;20288;-72
2022/07/15 02:29:02;;;;;;;2.40;2.20;;;23.80;48.20;;;;;;4977436;28;20201;-72
2022/07/15 02:31:30;;;;;;;2.22;2.00;;;23.80;48.30;;;;;;4977715;28;20847;-72
2022/07/15 02:33:59;;;;;;;2.13;1.92;;;23.80;48.30;;;;;;4977431;28;20221;-72
2022/07/15 02:36:29;;;;;;;1.92;1.80;;;23.80;48.30;;;;;;4977332;28;20271;-72
2022/07/15 02:38:56;;;;;;;3.35;2.10;;;23.80;48.20;;;;;;4977163;28;20228;-72
2022/07/15 02:41:24;;;;;;;2.05;1.90;;;23.70;48.20;;;;;;4977530;28;20701;-71
2022/07/15 02:43:53;;;;;;;2.50;2.00;;;23.80;48.30;;;;;;4977084;28;20777;-72
2022/07/15 02:46:21;;;;;;;2.60;2.00;;;23.70;48.20;;;;;;4977303;28;20221;-72
2022/07/15 02:48:49;;;;;;;2.78;2.22;;;23.70;48.20;;;;;;4977752;28;20201;-72
2022/07/15 02:51:16;;;;;;;2.10;2.00;;;23.70;48.10;;;;;;4978503;28;20214;-72
2022/07/15 02:53:43;;;;;;;2.65;2.45;;;23.70;48.00;;;;;;4977304;28;20218;-72
2022/07/15 02:56:15;;;;;;;2.15;1.92;;;23.70;48.00;;;;;;4977662;28;20686;-71
2022/07/15 02:58:42;;;;;;;2.05;1.85;;;23.60;48.10;;;;;;4977268;28;20228;-72
2022/07/15 03:01:10;;;;;;;1.92;1.80;;;23.60;48.00;;;;;;4976935;28;20308;-72
2022/07/15 03:03:40;;;;;;;2.58;2.10;;;23.60;48.10;;;;;;4976869;28;20221;-71
2022/07/15 03:06:12;;;;;;;3.05;2.10;;;23.60;48.10;;;;;;4976845;28;20205;-72
2022/07/15 03:08:39;;;;;;;2.40;2.10;;;23.60;48.10;;;;;;4976819;28;20223;-72
2022/07/15 03:11:06;;;;;;;2.28;2.08;;;23.60;47.90;;;;;;4976873;28;20212;-72
2022/07/15 03:13:34;;;;;;;2.45;2.25;;;23.50;47.60;;;;;;4976655;28;20221;-72
2022/07/15 03:16:01;;;;;;;2.20;2.00;;;23.50;47.60;;;;;;4976651;28;20240;-72
2022/07/15 03:18:28;;;;;;;3.15;2.00;;;23.50;47.50;;;;;;4976939;28;20204;-72
2022/07/15 03:20:57;;;;;;;2.17;2.00;;;23.50;47.40;;;;;;4977981;28;20205;-73
2022/07/15 03:23:24;;;;;;;3.85;2.10;;;23.50;47.40;;;;;;4976634;28;20225;-72
2022/07/15 03:25:53;;;;;;;2.63;2.28;;;23.50;47.80;;;;;;4976440;28;20189;-72
2022/07/15 03:28:21;;;;;;;2.30;2.10;;;23.50;47.90;;;;;;4976855;28;20205;-71
2022/07/15 03:30:49;;;;;;;2.38;1.90;;;23.50;47.80;;;;;;4980406;28;20237;-72
2022/07/15 03:33:17;;;;;;;2.90;2.13;;;23.50;47.90;;;;;;4980410;28;20267;-72
2022/07/15 03:35:45;;;;;;;2.17;1.98;;;23.50;47.90;;;;;;4980612;28;20200;-72
2022/07/15 03:38:14;;;;;;;2.38;2.17;;;23.50;47.90;;;;;;4980256;28;20201;-72
2022/07/15 03:40:42;;;;;;;2.60;1.98;;;23.40;47.60;;;;;;4980411;28;20193;-71
2022/07/15 03:43:10;;;;;;;2.28;2.08;;;23.40;47.50;;;;;;4980297;28;20717;-72
2022/07/15 03:45:37;;;;;;;3.08;2.15;;;23.40;47.50;;;;;;4980948;28;20198;-72
2022/07/15 03:48:05;;;;;;;3.47;2.22;;;23.40;47.50;;;;;;4980483;28;20200;-72
2022/07/15 03:50:36;;;;;;;2.20;2.00;;;23.40;47.50;;;;;;4979993;28;20301;-72
2022/07/15 03:53:03;;;;;;;2.17;1.90;;;23.40;47.40;;;;;;4979765;28;20217;-71
2022/07/15 03:55:31;;;;;;;2.92;1.92;;;23.40;47.40;;;;;;4980081;28;20199;-71
2022/07/15 03:57:58;;;;;;;2.78;2.20;;;23.40;47.40;;;;;;4997691;28;20189;-71
2022/07/15 04:00:25;;;;;;;2.30;1.90;;;23.40;47.30;;;;;;4979959;28;20193;-71
2022/07/15 04:02:53;;;;;;;2.17;1.98;;;23.40;47.20;;;;;;4997191;28;20282;-72
2022/07/15 04:05:19;;;;;;;2.97;1.90;;;23.40;47.30;;;;;;4980068;28;20583;-71
2022/07/15 04:07:47;;;;;;;2.40;2.20;;;23.40;47.30;;;;;;4997952;28;20252;-72
2022/07/15 04:10:14;;;;;;;2.33;2.08;;;23.40;47.30;;;;;;4979739;28;20654;-72
2022/07/15 04:12:44;;;;;;;2.42;2.15;;;23.40;47.40;;;;;;4980232;28;20750;-72
2022/07/15 04:15:11;;;;;;;2.22;1.92;;;23.40;47.30;;;;;;4979728;28;20253;-72
2022/07/15 04:17:38;;;;;;;2.17;1.98;;;23.40;47.30;;;;;;4997175;28;20197;-72
2022/07/15 04:20:07;;;;;;;2.30;2.10;;;23.40;47.30;;;;;;4979487;28;20209;-72
2022/07/15 04:22:39;;;;;;;2.17;1.98;;;23.40;47.50;;;;;;4979856;28;20260;-71
2022/07/15 04:25:08;;;;;;;2.67;2.10;;;23.40;47.40;;;;;;4979496;28;20201;-71
2022/07/15 04:27:35;;;;;;;2.42;2.05;;;23.40;47.40;;;;;;4979399;28;20228;-72
2022/07/15 04:30:05;;;;;;;2.70;2.08;;;23.40;47.30;;;;;;4979372;28;20622;-72
2022/07/15 04:32:40;;;;;;;2.00;1.90;;;23.40;47.40;;;;;;4979625;28;20686;-73
2022/07/15 04:35:08;;;;;;;2.28;2.08;;;23.40;47.50;;;;;;4979352;28;20255;-72
2022/07/15 04:37:36;;;;;;;2.28;2.08;;;23.40;47.40;;;;;;4979278;28;20193;-72
2022/07/15 04:40:07;;;;;;;2.45;1.88;;;23.40;47.40;;;;;;4978984;28;20201;-72
2022/07/15 04:42:36;;;;;;;3.63;2.22;;;23.40;47.40;;;;;;4979349;28;20214;-72
2022/07/15 04:45:10;;;;;;;2.22;2.03;;;23.40;47.40;;;;;;4979888;28;20564;-72
2022/07/15 04:47:37;;;;;;;3.08;2.35;;;23.50;47.70;;;;;;4979006;28;20197;-72
2022/07/15 04:52:53;;;;;;;2.10;1.90;;;23.60;47.50;;;;;;4978913;28;20221;-72
2022/07/15 04:55:23;;;;;;;2.10;1.90;;;23.70;47.20;;;;;;4979169;28;20232;-72
2022/07/15 04:57:59;;;;;;;2.30;2.10;;;23.90;47.70;;;;;;4981169;28;20558;-72
2022/07/15 05:00:27;;;;;;;3.40;2.45;;;24.10;46.70;;;;;;4979512;28;20217;-72
2022/07/15 05:02:54;;;;;;;2.70;2.15;;;24.30;46.40;;;;;;4996928;28;20260;-72
2022/07/15 05:05:22;;;;;;;3.03;2.10;;;24.50;46.10;;;;;;4979719;28;20260;-72
2022/07/15 05:07:51;;;;;;;2.35;2.00;;;24.60;45.90;;;;;;4982943;28;20260;-72
2022/07/15 05:10:18;;;;;;;2.17;1.98;;;24.80;45.60;;;;;;4981894;28;20201;-72
2022/07/15 05:12:51;;;;;;;2.47;2.28;;;24.90;45.20;;;;;;4979841;28;20335;-72
2022/07/15 05:15:20;;;;;;;3.22;2.30;;;25.00;45.00;;;;;;4979190;28;20202;-72
2022/07/15 05:17:49;;;;;;;2.47;2.28;;;25.20;44.80;;;;;;4978950;28;20566;-72
2022/07/15 05:20:21;;;;;;;3.03;2.30;;;25.30;44.50;;;;;;4979640;28;20212;-71
2022/07/15 05:22:50;;;;;;;3.50;2.30;;;25.40;44.30;;;;;;4996575;28;20201;-72
2022/07/15 05:25:19;;;;;;;3.15;2.20;;;25.50;44.10;;;;;;4979464;28;20225;-72
2022/07/15 05:27:47;;;;;;;2.58;2.35;;;25.60;43.90;;;;;;4978659;28;20209;-72
2022/07/15 05:30:17;;;;;;;3.78;2.53;;;25.70;43.70;;;;;;4978321;28;20197;-72
2022/07/15 05:32:45;;;;;;;5.63;2.63;;;25.80;43.50;;;;;;4978476;28;20626;-72
2022/07/15 05:35:19;;;;;;;3.92;2.60;;;25.90;43.40;;;;;;4978206;28;20260;-72
2022/07/15 05:37:47;;;;;;;3.15;2.30;;;26.00;43.30;;;;;;4978320;28;20220;-72
2022/07/15 05:40:20;;;;;;;5.28;2.58;;;26.10;43.40;;;;;;4978056;28;20182;-71
2022/07/15 05:42:53;;;;;;;3.33;2.90;;;26.10;43.00;;;;;;4978221;28;20592;-72
2022/07/15 05:45:20;;;;;;;5.38;2.95;;;26.20;42.60;;;;;;4978180;28;20227;-72
2022/07/15 05:47:55;;;;;;;3.75;3.08;;;26.20;42.40;;;;;;4978060;28;20185;-72
2022/07/15 05:50:27;;;;;;;3.83;2.90;;;26.20;42.10;;;;;;4977815;28;20738;-72
2022/07/15 05:52:58;;;;;;;5.70;2.88;;;26.30;42.20;;;;;;4977826;28;20583;-72
2022/07/15 05:55:26;;;;;;;5.90;3.13;;;26.30;41.90;;;;;;4977799;28;20194;-72
2022/07/15 05:57:55;;;;;;;4.70;3.30;;;26.30;42.00;;;;;;4978095;28;20662;-72
2022/07/15 06:00:26;;;;;;;4.18;3.00;;;26.30;42.00;;;;;;4978138;28;20204;-72
2022/07/15 06:02:53;;;;;;;8.80;3.88;;;26.30;42.20;;;;;;4977657;28;20647;-72
2022/07/15 06:05:24;;;;;;;5.68;3.10;;;26.40;42.10;;;;;;4977502;28;20197;-72
2022/07/15 06:07:57;;;;;;;6.45;3.30;;;26.50;42.00;;;;;;4977431;28;20605;-72
2022/07/15 06:10:29;;;;;;;4.75;3.30;;;26.50;42.20;;;;;;4977696;28;20662;-72
2022/07/15 06:12:57;;;;;;;5.88;3.30;;;26.50;42.10;;;;;;4977295;28;20252;-72
2022/07/15 06:15:24;;;;;;;6.72;3.30;;;26.60;41.90;;;;;;4977191;28;20204;-71
2022/07/15 06:17:53;;;;;;;5.30;3.08;;;26.50;41.20;;;;;;4977353;28;20198;-72
2022/07/15 06:20:22;;;;;;;5.07;3.30;;;26.60;41.50;;;;;;4977210;28;20208;-71
2022/07/15 06:22:49;;;;;;;8.77;3.33;;;26.70;41.30;;;;;;4994997;28;20235;-71
2022/07/15 06:25:20;;;;;;;3.92;3.35;;;26.80;40.50;;;;;;4977219;28;20204;-72
2022/07/15 06:27:48;;;;;;;5.18;3.00;;;26.90;41.30;;;;;;4977202;28;20200;-71
2022/07/15 06:30:15;;;;;;;4.28;3.17;;;27.00;40.40;;;;;;4977076;28;20208;-72
2022/07/15 06:32:43;;;;;;;5.38;2.95;;;27.10;39.90;;;;;;4994344;28;20259;-72
2022/07/15 06:35:11;;;;;;;6.93;2.95;;;27.20;40.00;;;;;;4977716;28;20203;-72
2022/07/15 06:37:38;;;;;;;5.20;2.80;;;27.20;37.40;;;;;;4994426;28;20196;-71
2022/07/15 06:40:07;;;;;;;4.90;3.13;;;27.30;38.00;;;;;;4976901;28;20225;-72
2022/07/15 06:42:37;;;;;;;4.88;3.10;;;27.40;38.70;;;;;;4977011;28;20205;-72
2022/07/15 06:45:07;;;;;;;4.72;2.97;;;27.50;38.40;;;;;;4977589;28;20189;-72
2022/07/15 06:47:35;;;;;;;5.88;2.83;;;27.50;37.70;;;;;;4976900;28;20200;-72
2022/07/15 06:50:02;;;;;;;6.30;3.33;;;27.60;36.60;;;;;;4976650;28;20227;-72
2022/07/15 06:52:29;;;;;;;6.40;3.03;;;27.60;36.20;;;;;;4994060;28;20222;-72
2022/07/15 06:54:56;;;;;;;6.25;3.00;;;27.70;35.90;;;;;;4976652;28;20205;-72
2022/07/15 06:57:24;;;;;;;6.03;2.70;;;27.70;37.00;;;;;;4977143;28;20189;-72
2022/07/15 06:59:56;;;;;;;4.57;2.78;;;27.70;36.30;;;;;;4976792;28;20685;-72
2022/07/15 07:02:24;;;;;;;8.77;2.63;;;27.80;36.10;;;;;;4977108;28;20588;-72
2022/07/15 07:04:51;;;;;;;8.80;3.10;;;27.80;35.70;;;;;;4977028;28;20224;-72
2022/07/15 07:07:19;;;;;;;5.75;3.20;;;27.90;34.30;;;;;;4976627;28;20205;-72
2022/07/15 07:09:46;;;;;;;6.65;2.95;;;27.80;34.40;;;;;;4976539;28;20211;-72
2022/07/15 07:12:13;;;;;;;7.70;3.00;;;27.90;34.40;;;;;;4976356;28;20224;-72
2022/07/15 07:14:40;;;;;;;5.65;3.00;;;28.00;34.30;;;;;;4976978;28;20199;-72
2022/07/15 07:17:08;;;;;;;4.50;2.90;;;28.00;34.30;;;;;;4976419;28;20232;-72
2022/07/15 07:19:36;;;;;;;4.63;2.88;;;28.00;33.80;;;;;;4976499;28;20197;-72
2022/07/15 07:22:04;;;;;;;8.10;3.50;;;28.10;33.70;;;;;;4976381;28;20204;-72
2022/07/15 07:24:31;;;;;;;5.72;2.92;;;28.10;33.30;;;;;;4994007;28;20185;-71
2022/07/15 07:26:58;;;;;;;3.60;2.63;;;28.10;33.60;;;;;;4976510;28;20218;-72
2022/07/15 07:29:25;;;;;;;4.60;2.50;;;28.20;33.80;;;;;;4976471;28;20220;-72
2022/07/15 07:31:52;;;;;;;4.60;2.90;;;28.20;34.20;;;;;;4976202;28;20220;-72
2022/07/15 07:34:21;;;;;;;4.20;2.55;;;28.30;33.80;;;;;;4976472;28;20200;-72
2022/07/15 07:36:49;;;;;;;4.57;2.70;;;28.30;33.60;;;;;;4976398;28;20292;-72
2022/07/15 07:39:16;;;;;;;5.25;2.50;;;28.30;33.20;;;;;;4976627;28;20219;-71
2022/07/15 07:41:43;;;;;;;4.35;2.65;;;28.40;33.30;;;;;;4976810;28;20197;-72
2022/07/15 07:44:10;;;;;;;4.15;2.28;;;28.40;33.40;;;;;;4994336;28;20295;-71
2022/07/15 07:46:38;;;;;;;4.82;2.42;;;28.40;33.60;;;;;;4994062;28;20225;-72
2022/07/15 07:49:05;;;;;;;4.97;2.67;;;28.50;33.40;;;;;;4976533;28;20204;-72
2022/07/15 07:51:33;;;;;;;4.47;2.45;;;28.50;34.00;;;;;;4976614;28;20224;-71
2022/07/15 07:54:00;;;;;;;3.33;2.00;;;28.50;32.90;;;;;;4977031;28;20698;-72
2022/07/15 07:56:27;;;;;;;5.97;2.42;;;28.60;32.80;;;;;;4976977;28;20205;-71
2022/07/15 07:58:55;;;;;;;3.70;2.47;;;28.60;32.40;;;;;;4977544;28;20197;-71
2022/07/15 08:01:22;;;;;;;3.50;2.22;;;28.60;32.40;;;;;;4976966;28;20666;-72
2022/07/15 08:03:50;;;;;;;3.42;1.98;;;28.60;32.50;;;;;;4976759;28;20217;-72
2022/07/15 08:06:17;;;;;;;3.97;2.20;;;28.60;32.20;;;;;;4976288;28;20205;-71
2022/07/15 08:08:45;;;;;;;2.80;2.17;;;28.70;32.90;;;;;;4993800;28;20184;-72
2022/07/15 08:11:14;;;;;;;2.95;1.80;;;28.70;33.30;;;;;;4976476;28;20200;-72
2022/07/15 08:13:41;;;;;;;4.25;2.10;;;28.70;32.40;;;;;;4975964;28;20232;-71
2022/07/15 08:16:08;;;;;;;2.97;1.92;;;28.80;32.30;;;;;;4979345;28;20253;-72
2022/07/15 08:18:35;;;;;;;3.42;1.90;;;28.80;31.90;;;;;;4997294;28;20216;-72
2022/07/15 08:21:03;;;;;;;3.20;1.90;;;28.80;31.60;;;;;;4979702;28;20239;-72
2022/07/15 08:23:32;;;;;;;2.75;1.90;;;28.80;31.30;;;;;;4997027;28;20662;-72
2022/07/15 08:26:00;;;;;;;3.95;2.05;;;28.80;31.10;;;;;;4997413;28;20223;-72
2022/07/15 08:28:28;;;;;;;3.92;1.88;;;28.80;30.50;;;;;;4996846;28;20197;-72
2022/07/15 08:30:55;;;;;;;2.78;1.90;;;28.80;30.40;;;;;;4979179;28;20193;-72
2022/07/15 08:33:22;;;;;;;3.30;1.80;;;28.80;30.80;;;;;;4979312;28;20235;-72
2022/07/15 08:35:49;;;;;;;2.70;1.55;;;28.80;30.70;;;;;;4979433;28;20197;-72
2022/07/15 08:38:16;;;;;;;3.05;1.75;;;28.80;30.80;;;;;;4979271;28;20203;-71
2022/07/15 08:40:43;;;;;;;3.97;1.80;;;28.90;31.00;;;;;;4979464;28;20208;-72
2022/07/15 08:43:12;;;;;;;3.88;1.75;;;28.80;30.60;;;;;;4979094;28;20217;-72
2022/07/15 08:45:42;;;;;;;2.00;1.65;;;28.80;30.00;;;;;;4979223;28;20579;-72
2022/07/15 08:48:09;;;;;;;2.47;1.88;;;28.90;30.50;;;;;;4996699;28;20189;-72
2022/07/15 08:50:37;;;;;;;4.80;1.95;;;28.90;30.70;;;;;;4997030;28;20268;-72
2022/07/15 08:53:05;;;;;;;3.58;1.80;;;28.90;31.10;;;;;;5049961;23;20236;-69
2022/07/15 08:55:32;;;;;;;3.15;1.90;;;28.90;31.50;;;;;;4978966;28;20196;-69
2022/07/15 08:57:59;;;;;;;4.03;1.92;;;28.90;31.10;;;;;;4996335;28;20192;-69
2022/07/15 09:00:29;;;;;;;3.67;1.90;;;28.90;30.70;;;;;;4996554;28;20193;-67
2022/07/15 09:02:58;;;;;;;3.13;1.80;;;28.90;30.00;;;;;;4979044;28;20209;-66
2022/07/15 09:05:27;;;;;;;3.15;1.70;;;29.00;30.10;;;;;;4996569;28;20189;-67
2022/07/15 09:08:02;;;;;;;3.08;2.20;;;29.00;31.30;;;;;;4978871;28;20207;-67
2022/07/15 09:10:42;;;;;;;5.30;1.90;;;29.00;30.50;;;;;;4978900;28;20211;-67
2022/07/15 09:13:10;;;;;;;4.75;1.95;;;29.00;30.00;;;;;;4979034;28;20234;-67
2022/07/15 09:15:39;;;;;;;2.97;1.80;;;28.90;29.80;;;;;;4978898;28;20248;-69
2022/07/15 09:18:07;;;;;;;2.58;1.70;;;28.70;30.30;;;;;;4978758;28;20564;-69
2022/07/15 09:20:34;;;;;;;4.35;2.08;;;28.70;30.60;;;;;;4978585;28;20196;-70
2022/07/15 09:23:03;;;;;;;3.80;1.83;;;28.70;30.20;;;;;;4978542;28;20251;-69
2022/07/15 09:25:33;;;;;;;2.63;1.92;;;28.60;30.30;;;;;;4995695;28;20617;-69
2022/07/15 09:28:01;;;;;;;3.08;1.95;;;28.60;30.90;;;;;;4977861;28;20204;-70
2022/07/15 09:36:09;;;;;;;3.15;2.10;;;28.50;31.00;;;;;;4978265;28;20197;-69
2022/07/15 09:38:41;;;;;;;5.43;2.30;;;28.50;30.90;;;;;;4979400;28;20557;-69
2022/07/15 09:41:09;;;;;;;3.67;1.90;;;28.50;31.20;;;;;;4996805;28;20180;-70
2022/07/15 09:43:46;;;;;;;4.47;2.10;;;28.40;31.10;;;;;;4979174;28;20217;-70
2022/07/15 09:46:13;;;;;;;3.05;2.00;;;28.40;31.10;;;;;;4978393;28;20201;-69
2022/07/15 09:48:42;;;;;;;3.88;2.13;;;28.40;30.70;;;;;;4978266;28;20196;-69
2022/07/15 09:51:10;;;;;;;3.35;2.03;;;28.40;30.70;;;;;;4977745;28;20630;-69
2022/07/15 09:53:37;;;;;;;4.03;2.10;;;28.40;31.30;;;;;;4978053;28;20690;-69
2022/07/15 09:56:05;;;;;;;3.50;2.30;;;28.30;31.40;;;;;;4977874;28;20196;-70
2022/07/15 09:58:33;;;;;;;3.70;2.00;;;28.20;31.60;;;;;;4995240;28;20271;-70
2022/07/15 10:01:00;;;;;;;4.85;2.15;;;28.20;31.40;;;;;;4977880;28;20216;-69
2022/07/15 10:03:27;;;;;;;5.03;2.00;;;28.30;31.30;;;;;;4978373;28;20200;-69
2022/07/15 10:05:56;;;;;;;4.90;1.90;;;28.30;31.30;;;;;;4979093;28;20279;-70
2022/07/15 10:08:23;;;;;;;2.97;1.90;;;28.40;31.70;;;;;;4979063;28;20235;-69
2022/07/15 10:10:51;;;;;;;3.10;1.88;;;28.50;31.70;;;;;;4978670;28;20259;-69
2022/07/15 10:13:29;;;;;;;5.40;2.38;;;28.60;31.80;;;;;;4978947;28;20220;-69
2022/07/15 10:16:01;;;;;;;2.55;2.03;;;28.70;32.20;;;;;;4978591;28;20215;-69
2022/07/15 10:18:39;;;;;;;3.35;2.05;;;28.70;31.90;;;;;;4995743;28;20196;-70
2022/07/15 10:21:17;;;;;;;4.18;2.15;;;28.60;31.60;;;;;;4996417;28;20733;-69
2022/07/15 10:23:56;;;;;;;4.05;2.13;;;28.60;32.10;;;;;;4977817;28;20199;-68
2022/07/15 10:26:29;;;;;;;5.50;2.00;;;28.60;32.20;;;;;;4977847;28;20200;-68
2022/07/15 10:28:57;;;;;;;4.05;2.17;;;28.60;32.20;;;;;;4978197;28;20197;-68
2022/07/15 10:31:26;;;;;;;3.03;2.00;;;28.50;31.90;;;;;;4977648;28;20269;-68
2022/07/15 10:34:19;;;;;;;2.72;1.90;;;28.40;32.40;;;;;;4977477;28;20217;-67
2022/07/15 10:37:07;;;;;;;2.78;2.10;;;28.40;33.30;;;;;;4994755;28;20189;-68
2022/07/15 10:39:51;;;;;;;2.33;1.80;;;28.30;33.50;;;;;;4995016;28;20261;-69
2022/07/15 10:42:18;;;;;;;4.60;2.30;;;28.30;33.60;;;;;;4978764;28;20224;-70
2022/07/15 10:44:50;;;;;;;2.63;2.08;;;28.30;33.30;;;;;;4998258;28;20189;-69
2022/07/15 10:47:17;;;;;;;2.38;2.05;;;28.30;33.30;;;;;;4995183;28;20180;-69
2022/07/15 10:49:44;;;;;;;3.83;2.05;;;28.20;33.20;;;;;;4977025;28;20197;-70
2022/07/15 10:52:14;;;;;;;3.83;1.88;;;28.20;33.20;;;;;;4978073;28;20235;-68
2022/07/15 10:54:43;;;;;;;3.22;2.15;;;28.20;33.20;;;;;;4977962;28;20259;-70
2022/07/15 10:57:12;;;;;;;4.00;2.00;;;28.20;33.20;;;;;;4978374;28;20677;-70
2022/07/15 10:59:48;;;;;;;2.67;2.10;;;28.10;33.10;;;;;;4978641;28;20207;-69
2022/07/15 11:02:16;;;;;;;4.20;2.08;;;28.10;33.40;;;;;;4976902;28;20702;-69
2022/07/15 11:04:44;;;;;;;4.20;2.30;;;28.10;33.50;;;;;;4976742;28;20201;-68
2022/07/15 11:07:38;;;;;;;2.75;2.20;;;28.10;33.80;;;;;;4976628;28;20665;-69
2022/07/15 11:10:18;;;;;;;4.35;2.20;;;28.10;33.70;;;;;;4968207;28;20193;-69
2022/07/15 11:13:06;;;;;;;2.58;2.22;;;28.10;33.80;;;;;;4976578;28;20216;-69
2022/07/15 11:15:34;;;;;;;4.28;2.13;;;28.10;33.90;;;;;;4977262;28;20193;-69
2022/07/15 11:18:01;;;;;;;3.17;2.55;;;28.10;33.90;;;;;;4977205;28;20687;-69
2022/07/15 11:20:33;;;;;;;4.28;2.30;;;28.00;33.90;;;;;;4976719;28;20680;-68
2022/07/15 11:23:02;;;;;;;3.38;1.98;;;28.10;34.00;;;;;;4976537;28;20307;-68
2022/07/15 11:25:31;;;;;;;2.95;1.83;;;28.10;33.90;;;;;;4976678;28;20204;-68
2022/07/15 11:28:04;;;;;;;3.38;2.45;;;28.00;33.90;;;;;;4976465;28;20287;-69
2022/07/15 11:30:33;;;;;;;2.92;2.20;;;28.10;34.50;;;;;;4976753;28;20196;-69
2022/07/15 11:33:01;;;;;;;3.55;2.25;;;28.00;34.20;;;;;;4976131;28;20731;-69
2022/07/15 11:35:29;;;;;;;3.65;2.25;;;28.00;34.10;;;;;;4976426;28;20201;-68
2022/07/15 11:38:02;;;;;;;3.25;2.35;;;28.00;34.40;;;;;;4976477;28;20200;-69
2022/07/15 11:46:00;;;;;;;3.35;2.30;;;28.00;35.00;;;;;;4976408;28;20251;-69
2022/07/15 11:48:27;;;;;;;2.42;2.03;;;28.00;35.00;;;;;;4994121;28;20243;-69
2022/07/15 11:50:55;;;;;;;4.30;2.40;;;28.00;35.00;;;;;;4979739;28;20223;-69
2022/07/15 11:53:24;;;;;;;3.97;2.00;;;28.00;35.40;;;;;;4981327;28;20235;-69
2022/07/15 11:55:52;;;;;;;2.90;2.10;;;27.90;35.20;;;;;;4980746;28;20666;-69
2022/07/15 11:58:26;;;;;;;3.67;2.40;;;27.90;35.20;;;;;;4980405;28;20197;-69
2022/07/15 12:00:53;;;;;;;3.13;2.08;;;27.90;35.40;;;;;;4998217;28;20192;-67
2022/07/15 12:03:20;;;;;;;3.25;2.15;;;27.90;35.40;;;;;;4997650;28;20254;-66
2022/07/15 12:06:00;;;;;;;2.22;1.92;;;27.80;35.30;;;;;;4980775;28;20207;-67
2022/07/15 12:08:40;;;;;;;4.60;2.42;;;27.80;35.30;;;;;;4980051;28;20263;-69
2022/07/15 12:11:12;;;;;;;3.45;2.00;;;27.80;35.30;;;;;;4979896;28;20220;-70
2022/07/15 12:13:48;;;;;;;4.88;2.00;;;27.80;35.30;;;;;;4979792;28;20212;-69
2022/07/15 12:16:17;;;;;;;4.63;2.13;;;27.80;35.80;;;;;;4979750;28;20662;-70
2022/07/15 12:18:45;;;;;;;2.53;1.85;;;27.80;36.00;;;;;;4998182;28;20189;-68
2022/07/15 12:21:12;;;;;;;3.08;2.00;;;27.70;36.30;;;;;;4980507;28;20251;-69
2022/07/15 12:23:40;;;;;;;2.65;2.10;;;27.70;36.20;;;;;;4980083;28;20662;-69
2022/07/15 12:26:08;;;;;;;3.53;2.20;;;27.70;36.30;;;;;;4979429;28;20658;-69
2022/07/15 12:28:36;;;;;;;2.60;2.10;;;27.60;36.20;;;;;;4997445;28;20193;-69
2022/07/15 12:31:03;;;;;;;2.72;2.20;;;27.70;36.00;;;;;;4980000;28;20196;-69
2022/07/15 12:33:34;;;;;;;2.35;2.15;;;27.70;36.30;;;;;;4979779;28;20216;-70
2022/07/15 12:36:15;;;;;;;2.40;2.05;;;27.60;36.70;;;;;;4979371;28;20673;-68
2022/07/15 12:38:44;;;;;;;3.47;2.10;;;27.60;36.60;;;;;;4996894;28;20192;-69
2022/07/15 12:41:23;;;;;;;3.22;2.20;;;27.60;36.70;;;;;;4996900;28;20201;-69
2022/07/15 12:43:52;;;;;;;2.40;2.00;;;27.60;36.50;;;;;;4980134;28;20196;-69
2022/07/15 12:46:20;;;;;;;2.47;2.20;;;27.60;36.80;;;;;;4979519;28;20255;-69
2022/07/15 12:48:48;;;;;;;2.15;1.90;;;27.60;36.80;;;;;;4996723;28;20196;-68
2022/07/15 12:51:16;;;;;;;3.25;2.15;;;27.50;36.60;;;;;;4979088;28;20197;-69
2022/07/15 12:53:44;;;;;;;2.53;2.33;;;27.50;36.90;;;;;;4996848;28;20640;-69
2022/07/15 12:56:11;;;;;;;3.08;1.90;;;27.50;37.20;;;;;;4980148;28;20259;-70
2022/07/15 12:58:38;;;;;;;3.70;2.25;;;27.40;36.90;;;;;;4979863;28;20750;-69
2022/07/15 13:01:07;;;;;;;2.60;2.05;;;27.50;37.20;;;;;;4982238;28;20201;-69
2022/07/15 13:03:34;;;;;;;3.40;2.20;;;27.40;36.60;;;;;;4982303;28;20209;-68
2022/07/15 13:06:02;;;;;;;2.25;2.05;;;27.40;37.00;;;;;;4997404;28;20217;-69
2022/07/15 13:08:29;;;;;;;2.22;1.98;;;27.40;37.10;;;;;;4979430;28;20251;-69
2022/07/15 13:10:59;;;;;;;3.20;1.90;;;27.40;37.00;;;;;;4979186;28;20692;-71
2022/07/15 13:13:28;;;;;;;3.92;2.13;;;27.40;36.80;;;;;;4978712;28;20232;-69
2022/07/15 13:15:54;;;;;;;3.35;2.22;;;27.40;36.80;;;;;;4978911;28;20201;-69
2022/07/15 13:18:21;;;;;;;3.22;2.40;;;27.30;36.90;;;;;;4978733;28;20204;-71